CheckWX is a tool to help pilots better visualize weather data.  It is not intended as a substitute for an official pre-flight weather briefing.

04:54:13 UTC

LELO TAF
Logroño-Agoncillo Airport
Logroño, Spain
TAF LELO 260200Z 2603/2612 VRB05KT 9999 FEW045 BECMG 2606/2608 09012KT

Aug-26@
03:00 UTC

Aug-26 @ 03:00 UTC

Aug-26@
06:00 UTC

Aug-26 @ 06:00 UTC

TAF LELO 260200Z 2603/2612 VRB05KT 9999 FEW045
Wind
  • Variable at 5 KTS
Cloud Levels
  • Few at 4,500' AGL

Aug-26@
06:00 UTC

Aug-26 @ 06:00 UTC

Aug-26@
12:00 UTC

Aug-26 @ 12:00 UTC

BECMG 2606/2608 09012KT

Becoming

Becoming Conditions expected by Mon, Aug 26, 2019 @ 08:00 UTC

Wind
  • 090° at 12 KTS
Cloud Levels
  • Few at 4,500' AGL